createdAt,value
2023-01-29T00:00:20.212Z,101593.81
2023-01-29T00:10:21.522Z,101610.72
2023-01-29T00:20:22.826Z,101609.28
2023-01-29T00:30:24.171Z,101597.19
2023-01-29T01:01:03.448Z,101602.84
2023-01-29T01:11:04.700Z,101612.63
2023-01-29T01:21:05.947Z,101611.31
2023-01-29T01:31:07.284Z,101627.19
2023-01-29T01:41:08.611Z,101623.13
2023-01-29T02:32:25.833Z,101604.91
2023-01-29T02:42:27.296Z,101614.38
2023-01-29T02:52:28.555Z,101595.13
2023-01-29T03:02:29.833Z,101587.69
2023-01-29T03:12:34.273Z,101587.47
2023-01-29T03:32:54.803Z,101587.72
2023-01-29T03:42:56.499Z,101590.81
2023-01-29T03:52:57.823Z,101607.81
2023-01-29T04:02:59.089Z,101595.25
2023-01-29T04:13:00.496Z,101609.22
2023-01-29T06:37:07.976Z,101594.94
2023-01-29T06:47:09.289Z,101606.16
2023-01-29T06:57:10.624Z,101614.50
2023-01-29T07:07:13.361Z,101604.47
2023-01-29T07:17:14.637Z,101601.59
2023-01-29T07:27:15.902Z,101602.72
2023-01-29T07:37:17.165Z,101622.00
2023-01-29T07:47:18.410Z,101643.03
2023-01-29T07:57:22.651Z,101639.22
2023-01-29T08:07:23.907Z,101647.03
2023-01-29T08:27:44.040Z,101660.53
2023-01-29T08:37:45.408Z,101666.59
2023-01-29T08:47:47.022Z,101661.22
2023-01-29T08:57:48.350Z,101647.59
2023-01-29T09:07:49.580Z,101662.31
2023-01-29T09:17:50.834Z,101692.38
2023-01-29T09:27:52.166Z,101633.66
2023-01-29T09:37:53.545Z,101606.06
2023-01-29T09:47:54.923Z,101600.34
2023-01-29T09:57:56.254Z,101595.34
2023-01-29T10:07:57.889Z,101613.72
2023-01-29T10:17:59.301Z,101608.66
2023-01-29T10:28:02.359Z,101625.13
2023-01-29T10:38:03.787Z,101644.00
2023-01-29T10:48:06.161Z,101626.09
2023-01-29T10:58:07.553Z,101610.53
2023-01-29T11:59:44.300Z,101509.75
2023-01-29T12:09:47.011Z,101487.56
2023-01-29T12:19:48.336Z,101462.25
2023-01-29T12:29:49.622Z,101450.22
2023-01-29T12:39:51.061Z,101425.59
2023-01-29T13:10:30.296Z,101378.16
2023-01-29T13:20:32.651Z,101381.63
2023-01-29T13:30:34.027Z,101366.50
2023-01-29T13:40:35.307Z,101369.69
2023-01-29T13:50:37.725Z,101359.53
2023-01-29T14:21:16.930Z,101333.22
2023-01-29T14:31:18.308Z,101328.91
2023-01-29T14:41:19.617Z,101320.47
2023-01-29T14:51:20.846Z,101324.72
2023-01-29T15:01:22.220Z,101331.47
2023-01-29T15:11:35.902Z,101332.88
2023-01-29T15:21:37.159Z,101342.97
2023-01-29T15:31:38.536Z,101334.97
2023-01-29T15:41:39.863Z,101330.00
2023-01-29T15:51:41.133Z,101334.63
2023-01-29T16:01:42.871Z,101329.41
2023-01-29T16:11:44.188Z,101340.81
2023-01-29T16:21:46.992Z,101345.06
2023-01-29T16:31:48.404Z,101340.81
2023-01-29T16:41:49.707Z,101329.72
2023-01-29T16:51:50.979Z,101322.06
2023-01-29T17:01:52.224Z,101332.63
2023-01-29T18:13:50.714Z,101326.41
2023-01-29T18:23:51.994Z,101336.84
2023-01-29T18:33:53.373Z,101344.19
2023-01-29T18:43:54.696Z,101358.09
2023-01-29T18:53:56.011Z,101350.31
2023-01-29T19:55:36.711Z,101342.34
2023-01-29T20:05:38.038Z,101334.19
2023-01-29T20:15:39.320Z,101323.53
2023-01-29T20:25:40.610Z,101317.53
2023-01-29T20:35:41.924Z,101328.03
2023-01-29T21:16:41.462Z,101293.97
2023-01-29T21:26:42.801Z,101304.44
2023-01-29T21:36:44.336Z,101298.72
2023-01-29T21:46:45.609Z,101305.63
2023-01-29T21:56:46.859Z,101300.91
2023-01-29T22:06:48.137Z,101279.03
2023-01-29T22:27:08.711Z,101264.06
2023-01-29T22:37:09.962Z,101235.53
2023-01-29T22:47:11.206Z,101220.72
2023-01-29T22:57:12.508Z,101206.81
2023-01-29T23:07:13.764Z,101202.13
